createdAt,value
2018-08-09T00:00:30.136Z,89.30
2018-08-09T00:01:01.176Z,89.30
2018-08-09T00:01:32.267Z,89.40
2018-08-09T00:02:03.248Z,89.40
2018-08-09T00:02:34.275Z,89.30
2018-08-09T00:03:05.303Z,89.30
2018-08-09T00:03:36.347Z,89.40
2018-08-09T00:04:07.372Z,89.50
2018-08-09T00:04:38.406Z,89.50
2018-08-09T00:05:09.436Z,89.60
2018-08-09T00:05:40.465Z,89.60
2018-08-09T00:06:11.488Z,89.60
2018-08-09T00:06:42.529Z,89.60
2018-08-09T00:07:13.561Z,89.60
2018-08-09T00:07:44.593Z,89.70
2018-08-09T00:08:15.620Z,89.70
2018-08-09T00:08:46.648Z,89.80
2018-08-09T00:09:17.680Z,89.90
2018-08-09T00:09:48.715Z,89.90
2018-08-09T00:10:19.740Z,89.80
2018-08-09T00:10:50.780Z,89.80
2018-08-09T00:11:21.829Z,89.80
2018-08-09T00:11:52.860Z,89.90
2018-08-09T00:12:23.888Z,89.90
2018-08-09T00:12:54.920Z,89.80
2018-08-09T00:13:25.948Z,89.80
2018-08-09T00:13:56.980Z,89.90
2018-08-09T00:14:28.013Z,89.90
2018-08-09T00:14:59.044Z,89.80
2018-08-09T00:15:30.076Z,89.80
2018-08-09T00:16:01.115Z,89.80
2018-08-09T00:16:32.148Z,89.70
2018-08-09T00:17:03.178Z,89.70
2018-08-09T00:17:34.217Z,89.60
2018-08-09T00:18:05.246Z,89.50
2018-08-09T00:18:36.272Z,89.50
2018-08-09T00:19:07.300Z,89.30
2018-08-09T00:19:38.333Z,89.30
2018-08-09T00:20:09.360Z,89.10
2018-08-09T00:20:40.388Z,89.00
2018-08-09T00:21:11.412Z,88.90
2018-08-09T00:21:42.448Z,88.80
2018-08-09T00:22:13.480Z,88.80
2018-08-09T00:22:44.499Z,88.70
2018-08-09T00:23:15.527Z,89.20
2018-08-09T00:23:46.579Z,88.00
2018-08-09T00:24:17.596Z,88.50
2018-08-09T00:24:48.646Z,88.40
2018-08-09T00:25:19.664Z,88.50
2018-08-09T00:25:50.692Z,88.40
2018-08-09T00:26:21.724Z,88.30
2018-08-09T00:26:52.769Z,88.30
2018-08-09T00:27:23.792Z,88.30
2018-08-09T00:27:54.820Z,88.30
2018-08-09T00:28:25.856Z,88.40
2018-08-09T00:28:56.884Z,88.50
2018-08-09T00:29:27.912Z,88.60
2018-08-09T00:29:58.943Z,88.70
2018-08-09T00:30:29.968Z,88.70
2018-08-09T00:31:01.004Z,88.90
2018-08-09T00:31:32.044Z,88.90
2018-08-09T00:32:03.077Z,89.00
2018-08-09T00:32:34.104Z,89.00
2018-08-09T00:33:05.128Z,89.10
2018-08-09T00:33:36.173Z,89.30
2018-08-09T00:34:07.202Z,89.30
2018-08-09T00:34:38.228Z,88.70
2018-08-09T00:35:09.255Z,88.60
2018-08-09T00:35:40.281Z,90.00
2018-08-09T00:36:11.309Z,89.50
2018-08-09T00:36:42.349Z,89.50
2018-08-09T00:37:13.378Z,90.00
2018-08-09T00:37:44.402Z,89.60
2018-08-09T00:38:15.423Z,89.60
2018-08-09T00:38:46.451Z,89.50
2018-08-09T00:39:17.476Z,89.60
2018-08-09T00:39:48.511Z,89.70
2018-08-09T00:40:19.553Z,89.80
2018-08-09T00:40:50.577Z,89.70
2018-08-09T00:41:21.602Z,89.80
2018-08-09T00:41:52.645Z,89.90
2018-08-09T00:42:23.672Z,89.80
2018-08-09T00:42:54.705Z,89.80
2018-08-09T00:43:25.732Z,89.90
2018-08-09T00:43:56.763Z,89.80
2018-08-09T00:44:27.812Z,89.70
2018-08-09T00:44:58.841Z,89.70
2018-08-09T00:45:29.881Z,89.70
2018-08-09T00:46:00.905Z,89.70
2018-08-09T00:46:31.933Z,89.70
2018-08-09T00:47:02.978Z,89.70
2018-08-09T00:47:34.000Z,89.70
2018-08-09T00:48:05.033Z,89.70
2018-08-09T00:48:36.064Z,89.60
2018-08-09T00:49:07.088Z,89.50
2018-08-09T00:49:38.112Z,89.50
2018-08-09T00:50:09.153Z,89.30
2018-08-09T00:50:40.172Z,89.30
2018-08-09T00:51:11.200Z,89.20
2018-08-09T00:51:42.240Z,89.00
2018-08-09T00:52:13.272Z,89.00
2018-08-09T00:52:44.312Z,89.00
2018-08-09T00:53:15.343Z,88.80
2018-08-09T00:53:46.373Z,88.70
2018-08-09T00:54:17.403Z,88.70
2018-08-09T00:54:48.485Z,88.50
2018-08-09T00:55:19.500Z,88.50
2018-08-09T00:55:50.537Z,88.40
2018-08-09T00:56:21.568Z,88.30
2018-08-09T00:56:52.610Z,88.30
2018-08-09T00:57:23.636Z,88.30
2018-08-09T00:57:54.668Z,89.00
2018-08-09T00:58:25.697Z,88.20
2018-08-09T00:58:56.728Z,88.20
2018-08-09T00:59:27.792Z,88.30
2018-08-09T00:59:58.820Z,88.30
2018-08-09T01:00:29.844Z,88.30
2018-08-09T01:01:00.876Z,88.50
2018-08-09T01:01:31.913Z,88.60
2018-08-09T01:02:02.956Z,88.70
2018-08-09T01:02:33.984Z,88.70
2018-08-09T01:03:05.013Z,88.80
2018-08-09T01:03:36.048Z,89.60
2018-08-09T01:04:07.075Z,88.90
2018-08-09T01:04:38.121Z,88.90
2018-08-09T01:05:09.140Z,88.90
2018-08-09T01:05:40.176Z,89.10
2018-08-09T01:06:11.201Z,89.40
2018-08-09T01:06:42.228Z,89.30
2018-08-09T01:07:13.277Z,89.60
2018-08-09T01:07:44.324Z,89.40
2018-08-09T01:08:15.364Z,89.20
2018-08-09T01:08:46.393Z,89.20
2018-08-09T01:09:17.417Z,89.20
2018-08-09T01:09:48.445Z,89.30
2018-08-09T01:10:19.480Z,89.30
2018-08-09T01:10:50.513Z,89.40
2018-08-09T01:11:21.540Z,89.50
2018-08-09T01:11:52.608Z,89.50
2018-08-09T01:12:23.613Z,89.50
2018-08-09T01:12:54.647Z,89.50
2018-08-09T01:13:25.676Z,89.50
2018-08-09T01:13:56.700Z,89.50
2018-08-09T01:14:27.787Z,89.30
2018-08-09T01:14:58.817Z,89.30
2018-08-09T01:15:29.844Z,89.40
2018-08-09T01:16:00.880Z,89.40
2018-08-09T01:16:31.903Z,89.40
2018-08-09T01:17:02.944Z,89.40
2018-08-09T01:17:33.991Z,89.50
2018-08-09T01:18:05.017Z,89.40
2018-08-09T01:18:36.046Z,89.50
2018-08-09T01:19:07.078Z,89.50
2018-08-09T01:19:38.102Z,89.50
2018-08-09T01:20:09.129Z,89.30
2018-08-09T01:20:40.160Z,89.40
2018-08-09T01:21:11.192Z,89.30
2018-08-09T01:21:42.228Z,89.30
2018-08-09T01:22:13.267Z,89.60
2018-08-09T01:22:44.296Z,89.20
2018-08-09T01:23:15.325Z,89.10
2018-08-09T01:23:46.366Z,88.90
2018-08-09T01:24:17.396Z,88.80
2018-08-09T01:24:48.424Z,88.70
2018-08-09T01:25:19.452Z,88.70
2018-08-09T01:25:50.489Z,88.50
2018-08-09T01:26:21.520Z,88.40
2018-08-09T01:26:52.550Z,88.30
2018-08-09T01:27:23.584Z,88.50
2018-08-09T01:27:54.616Z,88.30
2018-08-09T01:28:25.640Z,88.30
2018-08-09T01:28:56.675Z,88.20
2018-08-09T01:29:27.733Z,88.20
2018-08-09T01:29:58.780Z,88.20
2018-08-09T01:30:29.797Z,88.20
2018-08-09T01:31:00.830Z,88.20
2018-08-09T01:31:31.860Z,88.00
2018-08-09T01:32:02.900Z,88.00
2018-08-09T01:32:33.936Z,88.00
2018-08-09T01:33:04.969Z,88.00
2018-08-09T01:33:35.997Z,88.20
2018-08-09T01:34:07.024Z,88.20
2018-08-09T01:34:38.052Z,88.30
2018-08-09T01:35:09.093Z,88.40
2018-08-09T01:35:40.123Z,89.30
2018-08-09T01:36:11.149Z,88.50
2018-08-09T01:36:42.179Z,88.50
2018-08-09T01:37:13.216Z,88.60
2018-08-09T01:37:44.246Z,88.60
2018-08-09T01:38:15.284Z,88.70
2018-08-09T01:38:46.308Z,88.70
2018-08-09T01:39:17.338Z,88.80
2018-08-09T01:39:48.376Z,88.90
2018-08-09T01:40:19.408Z,88.90
2018-08-09T01:40:50.436Z,89.00
2018-08-09T01:41:21.464Z,89.00
2018-08-09T01:41:52.495Z,88.90
2018-08-09T01:42:23.536Z,89.00
2018-08-09T01:42:54.565Z,89.00
2018-08-09T01:43:25.598Z,88.80
2018-08-09T01:43:56.639Z,88.70
2018-08-09T01:44:27.660Z,88.60
2018-08-09T01:44:58.693Z,88.70
2018-08-09T01:45:29.720Z,89.00
2018-08-09T01:46:00.760Z,89.80
2018-08-09T01:46:31.785Z,89.00
2018-08-09T01:47:02.812Z,89.00
2018-08-09T01:47:33.849Z,89.00
2018-08-09T01:48:04.880Z,89.10
2018-08-09T01:48:35.908Z,89.20
2018-08-09T01:49:06.948Z,89.20
2018-08-09T01:49:37.976Z,89.20
2018-08-09T01:50:09.004Z,89.30
2018-08-09T01:50:40.032Z,89.30
2018-08-09T01:51:11.065Z,89.50
2018-08-09T01:51:42.095Z,89.40
2018-08-09T01:52:13.124Z,89.40
2018-08-09T01:52:44.160Z,89.50
2018-08-09T01:53:15.192Z,89.40
2018-08-09T01:53:46.233Z,89.30
2018-08-09T01:54:17.264Z,89.20
2018-08-09T01:54:48.308Z,89.20
2018-08-09T01:55:19.336Z,89.10
2018-08-09T01:55:50.365Z,89.00
2018-08-09T01:56:21.391Z,88.90
2018-08-09T01:56:52.419Z,88.70
2018-08-09T01:57:23.452Z,88.60
2018-08-09T01:57:54.492Z,88.50
2018-08-09T01:58:25.528Z,88.50
2018-08-09T01:58:56.552Z,88.50
2018-08-09T01:59:27.652Z,88.30
2018-08-09T01:59:58.697Z,88.30
2018-08-09T02:00:29.732Z,88.20
2018-08-09T02:01:00.759Z,88.00
2018-08-09T02:01:31.796Z,88.00
2018-08-09T02:02:02.829Z,88.20
2018-08-09T02:02:33.860Z,88.00
2018-08-09T02:03:04.893Z,87.90
2018-08-09T02:03:35.919Z,88.00
2018-08-09T02:04:06.949Z,88.00
2018-08-09T02:04:37.994Z,88.00
2018-08-09T02:05:09.104Z,88.00
2018-08-09T02:05:40.033Z,88.00
2018-08-09T02:06:11.072Z,88.20
2018-08-09T02:06:42.092Z,88.30
2018-08-09T02:07:13.116Z,88.20
2018-08-09T02:07:44.152Z,88.20
2018-08-09T02:08:15.193Z,88.20
2018-08-09T02:08:46.232Z,88.70
2018-08-09T02:09:17.297Z,88.50
2018-08-09T02:09:48.329Z,88.50
2018-08-09T02:10:19.352Z,88.50
2018-08-09T02:10:50.377Z,88.50
2018-08-09T02:11:21.412Z,88.60
2018-08-09T02:11:52.443Z,88.60
2018-08-09T02:12:23.476Z,88.70
2018-08-09T02:12:54.508Z,88.80
2018-08-09T02:13:25.540Z,88.80
2018-08-09T02:13:56.572Z,88.80
2018-08-09T02:14:27.629Z,88.90
2018-08-09T02:14:58.664Z,88.80
2018-08-09T02:15:29.700Z,88.90
2018-08-09T02:16:00.724Z,88.90
2018-08-09T02:16:31.760Z,88.70
2018-08-09T02:17:02.792Z,88.70
2018-08-09T02:17:33.820Z,88.60
2018-08-09T02:18:04.856Z,88.50
2018-08-09T02:18:35.884Z,88.50
2018-08-09T02:19:06.916Z,88.50
2018-08-09T02:19:37.943Z,88.40
2018-08-09T02:20:08.973Z,88.40
2018-08-09T02:20:40.000Z,88.50
2018-08-09T02:21:11.031Z,88.60
2018-08-09T02:21:42.056Z,88.50
2018-08-09T02:22:13.092Z,88.60
2018-08-09T02:22:44.128Z,88.90
2018-08-09T02:23:15.157Z,89.20
2018-08-09T02:23:46.183Z,89.20
2018-08-09T02:24:17.212Z,89.30
2018-08-09T02:24:48.239Z,89.30
2018-08-09T02:25:19.270Z,89.30
2018-08-09T02:25:50.300Z,89.40
2018-08-09T02:26:21.328Z,89.40
2018-08-09T02:26:52.361Z,89.20
2018-08-09T02:27:23.388Z,89.20
2018-08-09T02:27:54.424Z,89.20
2018-08-09T02:28:25.453Z,89.00
2018-08-09T02:28:56.494Z,89.00
2018-08-09T02:29:27.596Z,88.90
2018-08-09T02:29:58.621Z,88.80
2018-08-09T02:30:29.650Z,88.70
2018-08-09T02:31:00.676Z,88.60
2018-08-09T02:31:31.700Z,88.50
2018-08-09T02:32:02.756Z,88.30
2018-08-09T02:32:33.790Z,88.40
2018-08-09T02:33:04.828Z,88.30
2018-08-09T02:33:35.856Z,89.10
2018-08-09T02:34:06.896Z,88.30
2018-08-09T02:34:37.932Z,88.20
2018-08-09T02:35:08.964Z,88.10
2018-08-09T02:35:39.993Z,88.00
2018-08-09T02:36:11.030Z,88.00
2018-08-09T02:36:42.048Z,88.00
2018-08-09T02:37:13.080Z,88.10
2018-08-09T02:37:44.104Z,88.10
2018-08-09T02:38:15.145Z,88.20
2018-08-09T02:38:46.184Z,88.20
2018-08-09T02:39:17.208Z,88.10
2018-08-09T02:39:48.231Z,88.20
2018-08-09T02:40:19.264Z,88.30
2018-08-09T02:40:50.321Z,88.30
2018-08-09T02:41:21.349Z,88.30
2018-08-09T02:41:52.385Z,88.40
2018-08-09T02:42:23.417Z,88.40
2018-08-09T02:42:54.453Z,88.40
2018-08-09T02:43:28.728Z,88.50
2018-08-09T02:43:59.756Z,88.40
2018-08-09T02:44:30.796Z,88.50
2018-08-09T02:45:01.824Z,88.50
2018-08-09T02:45:32.853Z,88.60
2018-08-09T02:46:03.883Z,88.60
2018-08-09T02:46:34.943Z,88.60
2018-08-09T02:47:05.953Z,88.40
2018-08-09T02:47:36.985Z,88.30
2018-08-09T02:48:08.039Z,88.20
2018-08-09T02:48:39.068Z,88.10
2018-08-09T02:49:10.105Z,88.20
2018-08-09T02:49:41.132Z,88.10
2018-08-09T02:50:12.160Z,88.20
2018-08-09T02:50:43.189Z,88.20
2018-08-09T02:51:14.223Z,88.10
2018-08-09T02:51:45.244Z,88.00
2018-08-09T02:52:16.276Z,88.00
2018-08-09T02:52:47.305Z,88.10
2018-08-09T02:53:18.344Z,88.20
2018-08-09T02:53:49.371Z,88.10
2018-08-09T02:54:20.405Z,88.30
2018-08-09T02:54:51.428Z,88.90
2018-08-09T02:55:22.461Z,89.10
2018-08-09T02:55:53.489Z,89.20
2018-08-09T02:56:24.533Z,89.20
2018-08-09T02:56:55.569Z,89.20
2018-08-09T02:57:26.600Z,89.30
2018-08-09T02:57:57.634Z,89.30
2018-08-09T02:58:28.680Z,89.30
2018-08-09T02:58:59.704Z,89.30
2018-08-09T02:59:30.737Z,89.40
2018-08-09T03:00:01.769Z,89.20
2018-08-09T03:00:32.801Z,89.00
2018-08-09T03:01:03.832Z,88.90
2018-08-09T03:01:34.869Z,88.80
2018-08-09T03:02:05.909Z,88.70
2018-08-09T03:02:36.936Z,89.00
2018-08-09T03:03:07.973Z,88.60
2018-08-09T03:03:39.007Z,88.50
2018-08-09T03:04:10.043Z,88.40
2018-08-09T03:04:41.074Z,88.30
2018-08-09T03:05:12.110Z,88.30
2018-08-09T03:05:43.140Z,88.30
2018-08-09T03:06:14.173Z,88.20
2018-08-09T03:06:45.213Z,88.10
2018-08-09T03:07:16.244Z,88.00
2018-08-09T03:07:47.277Z,87.90
2018-08-09T03:08:18.321Z,88.00
2018-08-09T03:08:49.352Z,88.00
2018-08-09T03:09:20.377Z,88.00
2018-08-09T03:09:51.399Z,88.00
2018-08-09T03:10:22.432Z,88.10
2018-08-09T03:10:53.461Z,88.10
2018-08-09T03:11:24.480Z,88.20
2018-08-09T03:11:55.518Z,88.20
2018-08-09T03:12:26.545Z,88.20
2018-08-09T03:12:57.572Z,89.10
2018-08-09T03:13:28.604Z,88.70
2018-08-09T03:13:59.633Z,88.30
2018-08-09T03:14:30.664Z,88.30
2018-08-09T03:15:01.698Z,88.30
2018-08-09T03:15:32.729Z,88.30
2018-08-09T03:16:03.756Z,88.20
2018-08-09T03:16:34.789Z,88.30
2018-08-09T03:17:05.818Z,88.20
2018-08-09T03:17:36.856Z,88.20
2018-08-09T03:18:07.881Z,88.30
2018-08-09T03:18:38.920Z,88.30
2018-08-09T03:19:09.948Z,88.40
2018-08-09T03:19:40.980Z,88.40
2018-08-09T03:20:12.014Z,88.50
2018-08-09T03:20:43.043Z,88.50
2018-08-09T03:21:14.076Z,88.40
2018-08-09T03:21:45.105Z,88.40
2018-08-09T03:22:16.137Z,88.30
2018-08-09T03:22:47.170Z,88.10
2018-08-09T03:23:18.200Z,88.20
2018-08-09T03:23:49.237Z,88.20
2018-08-09T03:24:20.267Z,88.10
2018-08-09T03:24:51.288Z,88.10
2018-08-09T03:25:22.319Z,88.10
2018-08-09T03:25:53.344Z,88.10
2018-08-09T03:26:24.376Z,88.30
2018-08-09T03:26:55.400Z,88.70
2018-08-09T03:27:26.432Z,89.00
2018-08-09T03:27:57.465Z,89.00
2018-08-09T03:28:28.503Z,89.00
2018-08-09T03:28:59.532Z,89.20
2018-08-09T03:29:30.565Z,89.20
2018-08-09T03:30:01.622Z,89.30
2018-08-09T03:30:32.625Z,89.30
2018-08-09T03:31:03.652Z,89.30
2018-08-09T03:31:34.679Z,89.40
2018-08-09T03:32:05.724Z,89.40
2018-08-09T03:32:36.748Z,89.30
2018-08-09T03:33:07.850Z,89.20
2018-08-09T03:33:38.904Z,89.00
2018-08-09T03:34:09.939Z,88.90
2018-08-09T03:34:40.968Z,88.90
2018-08-09T03:35:12.000Z,88.70
2018-08-09T03:35:43.032Z,88.60
2018-08-09T03:36:14.065Z,88.60
2018-08-09T03:36:45.092Z,88.60
2018-08-09T03:37:16.124Z,88.50
2018-08-09T03:37:47.152Z,88.40
2018-08-09T03:38:18.180Z,88.30
2018-08-09T03:38:49.212Z,88.30
2018-08-09T03:39:20.251Z,88.30
2018-08-09T03:39:51.276Z,88.20
2018-08-09T03:40:22.308Z,88.20
2018-08-09T03:40:53.331Z,88.20
2018-08-09T03:41:24.364Z,88.20
2018-08-09T03:41:55.388Z,88.20
2018-08-09T03:42:26.412Z,88.20
2018-08-09T03:42:57.440Z,88.20
2018-08-09T03:43:28.476Z,88.10
2018-08-09T03:43:59.524Z,88.20
2018-08-09T03:44:30.552Z,88.20
2018-08-09T03:45:01.580Z,88.20
2018-08-09T03:45:32.614Z,88.20
2018-08-09T03:46:03.636Z,88.20
2018-08-09T03:46:34.664Z,88.20
2018-08-09T03:47:05.699Z,88.10
2018-08-09T03:47:36.755Z,88.10
2018-08-09T03:48:07.763Z,88.20
2018-08-09T03:48:38.795Z,88.20
2018-08-09T03:49:09.823Z,88.20
2018-08-09T03:49:40.876Z,88.30
2018-08-09T03:50:11.904Z,88.30
2018-08-09T03:50:42.935Z,88.20
2018-08-09T03:51:13.992Z,88.20
2018-08-09T03:51:45.018Z,88.30
2018-08-09T03:52:16.049Z,89.20
2018-08-09T03:52:47.079Z,88.40
2018-08-09T03:53:18.099Z,88.40
2018-08-09T03:53:49.140Z,88.40
2018-08-09T03:54:20.176Z,88.30
2018-08-09T03:54:51.195Z,88.30
2018-08-09T03:55:22.227Z,88.40
2018-08-09T03:55:53.684Z,88.50
2018-08-09T03:56:24.717Z,88.60
2018-08-09T03:56:55.745Z,88.40
2018-08-09T03:57:26.777Z,88.30
2018-08-09T03:57:57.808Z,88.20
2018-08-09T03:58:28.845Z,89.10
2018-08-09T03:58:59.889Z,88.70
2018-08-09T03:59:30.927Z,89.00
2018-08-09T04:00:01.958Z,89.00
2018-08-09T04:00:32.993Z,89.00
2018-08-09T04:01:04.011Z,89.00
2018-08-09T04:01:35.044Z,89.20
2018-08-09T04:02:06.068Z,89.90
2018-08-09T04:02:37.094Z,89.20
2018-08-09T04:03:08.128Z,89.20
2018-08-09T04:03:39.153Z,89.30
2018-08-09T04:04:10.196Z,89.30
2018-08-09T04:04:41.228Z,90.00
2018-08-09T04:05:12.256Z,89.30
2018-08-09T04:05:43.299Z,89.30
2018-08-09T04:06:14.334Z,89.40
2018-08-09T04:06:45.360Z,89.20
2018-08-09T04:07:16.388Z,89.00
2018-08-09T04:07:47.428Z,88.90
2018-08-09T04:08:18.461Z,88.70
2018-08-09T04:08:49.493Z,88.70
2018-08-09T04:09:20.528Z,88.60
2018-08-09T04:09:51.556Z,88.50
2018-08-09T04:10:22.584Z,88.50
2018-08-09T04:10:53.616Z,88.30
2018-08-09T04:11:24.648Z,88.30
2018-08-09T04:11:55.745Z,88.20
2018-08-09T04:12:26.709Z,88.10
2018-08-09T04:12:57.744Z,88.10
2018-08-09T04:13:28.776Z,88.10
2018-08-09T04:13:59.815Z,88.10
2018-08-09T04:14:30.848Z,88.20
2018-08-09T04:15:01.877Z,88.20
2018-08-09T04:15:32.910Z,88.90
2018-08-09T04:16:03.940Z,88.10
2018-08-09T04:16:34.976Z,88.00
2018-08-09T04:17:06.008Z,88.00
2018-08-09T04:17:37.041Z,87.90
2018-08-09T04:18:08.067Z,87.90
2018-08-09T04:18:39.097Z,87.90
2018-08-09T04:19:10.299Z,88.00
2018-08-09T04:19:41.337Z,88.00
2018-08-09T04:20:12.368Z,88.00
2018-08-09T04:20:43.393Z,88.00
2018-08-09T04:21:14.427Z,88.00
2018-08-09T04:21:45.457Z,88.00
2018-08-09T04:22:16.486Z,87.90
2018-08-09T04:22:47.520Z,88.00
2018-08-09T04:23:18.548Z,88.10
2018-08-09T04:23:49.580Z,88.00
2018-08-09T04:24:20.620Z,88.00
2018-08-09T04:24:51.652Z,88.00
2018-08-09T04:25:22.684Z,88.20
2018-08-09T04:25:53.725Z,88.10
2018-08-09T04:26:24.804Z,88.20
2018-08-09T04:26:55.776Z,88.20
2018-08-09T04:27:26.804Z,88.20
2018-08-09T04:27:57.832Z,88.30
2018-08-09T04:28:28.860Z,88.30
2018-08-09T04:28:59.887Z,88.40
2018-08-09T04:29:30.957Z,88.40
2018-08-09T04:30:01.984Z,88.50
2018-08-09T04:30:33.025Z,88.60
2018-08-09T04:31:04.048Z,88.70
2018-08-09T04:31:35.084Z,88.80
2018-08-09T04:32:06.115Z,88.80
2018-08-09T04:32:37.148Z,88.90
2018-08-09T04:33:08.187Z,88.90
2018-08-09T04:33:39.218Z,89.00
2018-08-09T04:34:10.248Z,89.00
2018-08-09T04:34:41.288Z,89.00
2018-08-09T04:35:12.325Z,89.00
2018-08-09T04:35:43.374Z,89.00
2018-08-09T04:36:14.400Z,89.00
2018-08-09T04:36:45.434Z,89.20
2018-08-09T04:37:16.464Z,89.10
2018-08-09T04:37:47.525Z,89.00
2018-08-09T04:38:18.529Z,89.00
2018-08-09T04:38:49.556Z,89.20
2018-08-09T04:39:20.600Z,89.10
2018-08-09T04:39:51.639Z,89.00
2018-08-09T04:40:22.672Z,88.90
2018-08-09T04:40:53.704Z,88.80
2018-08-09T04:41:24.733Z,88.70
2018-08-09T04:41:55.765Z,88.70
2018-08-09T04:42:26.792Z,88.60
2018-08-09T04:42:57.828Z,88.60
2018-08-09T04:43:28.856Z,88.50
2018-08-09T04:43:59.884Z,88.50
2018-08-09T04:44:30.929Z,88.50
2018-08-09T04:45:01.970Z,88.50
2018-08-09T04:45:32.997Z,88.50
2018-08-09T04:46:04.452Z,88.50
2018-08-09T04:46:35.765Z,88.50
2018-08-09T04:47:06.996Z,88.50
2018-08-09T04:47:38.024Z,88.50
2018-08-09T04:48:09.053Z,88.60
2018-08-09T04:48:40.128Z,88.60
2018-08-09T04:49:11.154Z,88.60
2018-08-09T04:49:42.152Z,88.60
2018-08-09T04:50:13.181Z,88.50
2018-08-09T04:50:44.216Z,88.60
2018-08-09T04:51:15.243Z,88.60
2018-08-09T04:51:46.284Z,88.60
2018-08-09T04:52:17.316Z,89.30
2018-08-09T04:52:48.346Z,88.60
2018-08-09T04:53:19.377Z,88.60
2018-08-09T04:53:50.413Z,88.60
2018-08-09T04:54:21.444Z,88.70
2018-08-09T04:54:52.484Z,89.40
2018-08-09T04:55:23.516Z,88.60
2018-08-09T04:55:54.544Z,88.60
2018-08-09T04:56:25.576Z,88.60
2018-08-09T04:56:56.613Z,88.50
2018-08-09T04:57:27.690Z,89.30
2018-08-09T04:57:58.776Z,88.60
2018-08-09T04:58:29.822Z,88.60
2018-08-09T04:59:00.796Z,88.60
2018-08-09T04:59:31.824Z,88.60
2018-08-09T05:00:02.864Z,88.60
2018-08-09T05:00:33.897Z,88.60
2018-08-09T05:01:04.934Z,88.60
2018-08-09T05:01:35.959Z,88.60
2018-08-09T05:02:06.997Z,88.70
2018-08-09T05:02:38.030Z,88.80
2018-08-09T05:03:09.062Z,88.80
2018-08-09T05:03:40.088Z,88.90
2018-08-09T05:04:11.121Z,89.00
2018-08-09T05:04:42.164Z,89.00
2018-08-09T05:05:13.196Z,89.20
2018-08-09T05:05:44.228Z,89.20
2018-08-09T05:06:15.310Z,89.20
2018-08-09T05:06:46.296Z,89.20
2018-08-09T05:07:17.332Z,89.20
2018-08-09T05:07:48.369Z,89.20
2018-08-09T05:08:19.400Z,89.20
2018-08-09T05:08:50.427Z,89.20
2018-08-09T05:09:21.465Z,88.60
2018-08-09T05:09:52.525Z,89.30
2018-08-09T05:10:23.591Z,89.30
2018-08-09T05:10:54.592Z,89.20
2018-08-09T05:11:25.620Z,89.20
2018-08-09T05:11:56.649Z,89.20
2018-08-09T05:12:27.712Z,89.20
2018-08-09T05:12:58.745Z,89.20
2018-08-09T05:13:29.771Z,89.20
2018-08-09T05:14:00.797Z,89.10
2018-08-09T05:14:31.827Z,89.00
2018-08-09T05:15:02.864Z,89.00
2018-08-09T05:15:33.897Z,88.90
2018-08-09T05:16:04.942Z,88.90
2018-08-09T05:16:35.968Z,88.90
2018-08-09T05:17:06.997Z,88.70
2018-08-09T05:17:38.024Z,88.70
2018-08-09T05:18:09.052Z,88.70
2018-08-09T05:18:40.085Z,88.70
2018-08-09T05:19:11.112Z,88.60
2018-08-09T05:19:42.145Z,88.60
2018-08-09T05:20:13.188Z,88.60
2018-08-09T05:20:44.224Z,88.60
2018-08-09T05:21:15.252Z,88.50
2018-08-09T05:21:46.285Z,88.50
2018-08-09T05:22:17.312Z,88.60
2018-08-09T05:22:48.340Z,88.50
2018-08-09T05:23:19.372Z,88.50
2018-08-09T05:23:50.400Z,88.50
2018-08-09T05:24:21.433Z,88.50
2018-08-09T05:24:52.466Z,88.40
2018-08-09T05:25:23.498Z,88.50
2018-08-09T05:25:54.529Z,88.50
2018-08-09T05:26:25.591Z,88.50
2018-08-09T05:26:56.588Z,88.40
2018-08-09T05:27:27.644Z,88.40
2018-08-09T05:27:58.680Z,88.40
2018-08-09T05:28:29.712Z,88.30
2018-08-09T05:29:00.740Z,88.30
2018-08-09T05:29:31.773Z,88.30
2018-08-09T05:30:02.806Z,88.40
2018-08-09T05:30:33.840Z,88.40
2018-08-09T05:31:04.869Z,88.50
2018-08-09T05:31:35.904Z,88.50
2018-08-09T05:32:06.933Z,88.50
2018-08-09T05:32:37.964Z,88.60
2018-08-09T05:33:08.992Z,88.60
2018-08-09T05:33:40.033Z,88.60
2018-08-09T05:34:11.098Z,88.70
2018-08-09T05:34:42.097Z,88.80
2018-08-09T05:35:13.125Z,88.90
2018-08-09T05:35:44.168Z,88.90
2018-08-09T05:36:15.247Z,89.00
2018-08-09T05:36:46.229Z,89.10
2018-08-09T05:37:17.257Z,89.10
2018-08-09T05:37:48.286Z,89.20
2018-08-09T05:38:19.315Z,89.20
2018-08-09T05:38:50.344Z,89.20
2018-08-09T05:39:21.372Z,89.20
2018-08-09T05:39:52.408Z,89.20
2018-08-09T05:40:23.444Z,89.20
2018-08-09T05:40:54.476Z,89.20
2018-08-09T05:41:25.509Z,89.30
2018-08-09T05:41:56.541Z,89.30
2018-08-09T05:42:27.596Z,89.30
2018-08-09T05:42:58.628Z,89.30
2018-08-09T05:43:29.656Z,89.20
2018-08-09T05:44:00.688Z,89.30
2018-08-09T05:44:31.716Z,89.30
2018-08-09T05:45:02.750Z,89.30
2018-08-09T05:45:33.785Z,89.60
2018-08-09T05:46:04.816Z,89.20
2018-08-09T05:46:35.855Z,89.20
2018-08-09T05:47:06.881Z,89.20
2018-08-09T05:47:37.908Z,89.10
2018-08-09T05:48:08.939Z,89.00
2018-08-09T05:48:39.972Z,89.00
2018-08-09T05:49:11.010Z,88.90
2018-08-09T05:49:42.039Z,88.90
2018-08-09T05:50:13.064Z,88.90
2018-08-09T05:50:44.104Z,88.80
2018-08-09T05:51:15.136Z,88.80
2018-08-09T05:51:46.164Z,88.70
2018-08-09T05:52:17.197Z,88.70
2018-08-09T05:52:48.272Z,88.60
2018-08-09T05:53:19.320Z,88.60
2018-08-09T05:53:50.276Z,88.60
2018-08-09T05:54:21.304Z,89.10
2018-08-09T05:54:52.332Z,88.60
2018-08-09T05:55:23.359Z,88.50
2018-08-09T05:55:54.401Z,88.50
2018-08-09T05:56:25.432Z,88.50
2018-08-09T05:56:56.461Z,88.40
2018-08-09T05:57:27.498Z,88.40
2018-08-09T05:57:58.529Z,88.50
2018-08-09T05:58:29.592Z,88.50
2018-08-09T05:59:00.584Z,88.50
2018-08-09T05:59:31.608Z,88.50
2018-08-09T06:00:02.632Z,88.40
2018-08-09T06:00:33.667Z,88.40
2018-08-09T06:01:04.708Z,88.40
2018-08-09T06:01:35.740Z,88.50
2018-08-09T06:02:06.774Z,88.30
2018-08-09T06:02:37.808Z,88.40
2018-08-09T06:03:08.836Z,88.40
2018-08-09T06:03:39.864Z,88.40
2018-08-09T06:04:10.892Z,88.50
2018-08-09T06:04:41.925Z,88.50
2018-08-09T06:05:12.952Z,88.50
2018-08-09T06:05:44.018Z,88.60
2018-08-09T06:06:15.026Z,88.60
2018-08-09T06:06:46.053Z,88.70
2018-08-09T06:07:17.089Z,88.70
2018-08-09T06:07:48.112Z,88.80
2018-08-09T06:08:19.145Z,88.80
2018-08-09T06:08:50.173Z,89.00
2018-08-09T06:09:21.211Z,89.00
2018-08-09T06:09:52.237Z,89.20
2018-08-09T06:10:23.263Z,89.20
2018-08-09T06:10:54.305Z,89.20
2018-08-09T06:11:25.347Z,89.20
2018-08-09T06:11:56.370Z,89.20
2018-08-09T06:12:27.433Z,89.20
2018-08-09T06:12:58.453Z,89.20
2018-08-09T06:13:29.534Z,89.30
2018-08-09T06:14:00.558Z,89.20
2018-08-09T06:14:31.580Z,89.20
2018-08-09T06:15:02.608Z,89.30
2018-08-09T06:15:33.636Z,89.30
2018-08-09T06:16:04.676Z,89.30
2018-08-09T06:16:35.705Z,89.30
2018-08-09T06:17:06.736Z,89.30
2018-08-09T06:17:37.764Z,89.30
2018-08-09T06:18:08.798Z,89.30
2018-08-09T06:18:39.824Z,89.20
2018-08-09T06:19:10.861Z,89.20
2018-08-09T06:19:41.882Z,89.20
2018-08-09T06:20:12.909Z,89.20
2018-08-09T06:20:43.940Z,89.70
2018-08-09T06:21:14.976Z,89.00
2018-08-09T06:21:46.065Z,89.00
2018-08-09T06:22:17.101Z,89.00
2018-08-09T06:22:48.129Z,88.90
2018-08-09T06:23:19.156Z,88.90
2018-08-09T06:23:50.185Z,88.90
2018-08-09T06:24:21.290Z,88.80
2018-08-09T06:24:52.300Z,88.80
2018-08-09T06:25:23.332Z,88.80
2018-08-09T06:25:54.370Z,88.70
2018-08-09T06:26:25.417Z,88.70
2018-08-09T06:26:56.430Z,88.70
2018-08-09T06:27:27.476Z,88.70
2018-08-09T06:27:58.504Z,88.60
2018-08-09T06:28:29.541Z,88.60
2018-08-09T06:29:00.569Z,88.60
2018-08-09T06:29:31.601Z,88.60
2018-08-09T06:30:02.628Z,88.60
2018-08-09T06:30:33.664Z,88.50
2018-08-09T06:31:04.693Z,88.50
2018-08-09T06:31:35.733Z,87.90
2018-08-09T06:32:06.767Z,87.90
2018-08-09T06:32:37.792Z,88.60
2018-08-09T06:33:08.824Z,88.60
2018-08-09T06:33:39.855Z,88.60
2018-08-09T06:34:10.889Z,88.60
2018-08-09T06:34:41.916Z,88.60
2018-08-09T06:35:12.952Z,88.60
2018-08-09T06:35:43.984Z,88.60
2018-08-09T06:36:15.017Z,88.60
2018-08-09T06:36:46.047Z,88.60
2018-08-09T06:37:17.080Z,88.60
2018-08-09T06:37:48.112Z,88.60
2018-08-09T06:38:19.141Z,88.70
2018-08-09T06:38:50.169Z,88.70
2018-08-09T06:39:21.201Z,88.80
2018-08-09T06:39:52.232Z,88.80